Pagrindinis puslapis
METAR-TAF:

METAR-TAF

Oro uostai :

Rygos oro uostas

Ryga, Latvija

platuma: 56-55N, ilguma: 023-58E, Aukštis: 10 m

Dabartinis oras

Ataskaita buvo paskelbta 16 minutes, ne 22:50 UTC
Vėjas 4 kt iš Šiaurės Vakarų
Temperatūra 12°C
Drėgmė 100%
Slėgis 999 hPa
Matomumas 10 km arba daugiau
Apsiniaukę ne aukštis 300 ft

METAR: EVRA 042250Z 32004KT 9999 OVC003 12/12 Q0999 NOSIG

Laikas: 02:06 (23:06 UTC)

Prognozė

Ataskaita buvo paskelbta 3 valandos ir 6 minutes, ne 20:00 UTC
Prognozė galioja nuo 04 metu 21 UTC su 05 metu 21 UTC
Vėjas 2 kt nuo kintamojo kryptimis
Matomumas 10 km arba daugiau
Išsisklaidę debesys ne aukštis 3000 ft
Laikinai
nuo 04 metu 21 UTC su 05 metu 06 UTC
Matomumas: 0600 m
ne aukštis 100 ft
rūkas
Tapsmas
nuo 05 metu 06 UTC su 05 metu 08 UTC
Vėjas 7 kt iš Pietų/Pietryčių

TAF: EVRA 042000Z 0421/0521 VRB02KT 9999 SCT030 TEMPO 0421/0506 0600 FG VV001 BECMG 0506/0508 15007KT

Orai ataskaitas ir orų prognozės (METAR, TAF).

turimą stotys yra geltonos ir raudonos taškus žemėlapyje.

Perkelti pele per norėdami pamatyti stoties vardą.

Tada spustelėkite, norėdami matyti oro stebėjimo ir prognozės.

Norėdami pakeisti žemėlapį: spustelėkite ant žalios mygtukų su juodo kryžiaus žemyn,; žalią mygtuką su brūkšneliu, jei norite nutolinti; arba žalių rodyklių gretimoms žemėlapius.


METAR-TAF: